Temperatura - Umidità - Pioggia orarie dal 07-08-2020 al 15-08-2020

Intensità - Direzione vento orarie dal 07-08-2020 al 15-08-2020

Dati orari da stazione meteo dal 07-08-2020 al 15-08-2020

Nome Stazione Data Ora Temperatura [°C] Umidità [%] Pioggia [mm] Intensità vento[km/h] Direzione vento [°]
Savigliano 07-08-2020 02:00 19 78.9 0 0.4 194
Savigliano 07-08-2020 03:00 17.2 82.1 0 0.7 180
Savigliano 07-08-2020 04:00 17.3 81.1 0 0.7 214
Savigliano 07-08-2020 05:00 16.2 85.4 0 1.4 137
Savigliano 07-08-2020 06:00 15.1 86.4 0 1.1 169
Savigliano 07-08-2020 07:00 15 87.7 0 1.1 156
Savigliano 07-08-2020 08:00 17.2 84.1 0 2.2 158
Savigliano 07-08-2020 09:00 20.4 75.8 0 1.8 148
Savigliano 07-08-2020 10:00 23.9 64.4 0 0.7 143
Savigliano 07-08-2020 11:00 25.7 55.2 0 1.4 99
Savigliano 07-08-2020 12:00 27.2 54.1 0 2.2 84
Savigliano 07-08-2020 13:00 27.4 48.9 0 2.9 87
Savigliano 07-08-2020 14:00 28.6 45.7 0 2.5 95
Savigliano 07-08-2020 15:00 30.1 45.9 0 1.1 229
Savigliano 07-08-2020 16:00 30.7 45 0 1.1 229
Savigliano 07-08-2020 17:00 30.9 39.6 0 1.4 250
Savigliano 07-08-2020 18:00 30.4 44 0 0.7 249
Savigliano 07-08-2020 19:00 30 47.3 0 1.1 285
Savigliano 07-08-2020 20:00 29.4 49.9 0 0.4 307
Savigliano 07-08-2020 21:00 26.6 58.3 0 0 194
Savigliano 07-08-2020 22:00 24.7 61.1 0 0 54
Savigliano 07-08-2020 23:00 25.1 62.5 0 0.4 199
Savigliano 08-08-2020 00:00 22.9 69.2 0 0.4 240
Savigliano 08-08-2020 01:00 22.1 68.2 0 0.4 256
Savigliano 08-08-2020 02:00 22.4 73 0 0.4 283
Savigliano 08-08-2020 03:00 22 74.7 0 0.4 268
Savigliano 08-08-2020 04:00 19.9 78.3 0 0.4 217
Savigliano 08-08-2020 05:00 18.1 84.2 0 0.4 169
Savigliano 08-08-2020 06:00 17.7 82.5 0 0.7 176
Savigliano 08-08-2020 07:00 17.4 83.9 0 0 176
Savigliano 08-08-2020 08:00 19 83.3 0 0 167
Savigliano 08-08-2020 09:00 23.2 71 0 0.7 162
Savigliano 08-08-2020 10:00 24.8 65.2 0 1.4 110
Savigliano 08-08-2020 11:00 27 58.6 0 1.4 121
Savigliano 08-08-2020 12:00 27.7 53.8 0 2.5 102
Savigliano 08-08-2020 13:00 28.4 47.6 0 2.9 82
Savigliano 08-08-2020 14:00 30.1 45.8 0 2.2 85
Savigliano 08-08-2020 15:00 30.4 45.7 0 2.2 127
Savigliano 08-08-2020 16:00 30.4 45.7 0 2.9 142
Savigliano 08-08-2020 17:00 31.4 39 0 2.2 167
Savigliano 08-08-2020 18:00 32 41.3 0 1.1 210
Savigliano 08-08-2020 19:00 31.7 46.6 0 1.1 219
Savigliano 08-08-2020 20:00 29.7 52.4 0 0.4 313
Savigliano 08-08-2020 21:00 27.5 58.9 0 0 310
Savigliano 08-08-2020 22:00 26 63.3 0 0 311
Savigliano 08-08-2020 23:00 24.9 68.7 0 0 307
Savigliano 09-08-2020 00:00 23.9 71.1 0 0.7 218
Savigliano 09-08-2020 01:00 22.5 79.4 0 0.4 207
Savigliano 09-08-2020 02:00 20.3 81.6 0 0.4 170
Savigliano 09-08-2020 03:00 19.9 82.2 0 0.4 161
Savigliano 09-08-2020 04:00 20 84.1 0 0.4 162
Savigliano 09-08-2020 05:00 19.5 86.8 0 0.7 161
Savigliano 09-08-2020 06:00 19.7 84.6 0 0 162
Savigliano 09-08-2020 07:00 18.3 87.6 0 0.7 162
Savigliano 09-08-2020 08:00 20 83.9 0 0.4 161
Savigliano 09-08-2020 09:00 22.7 75.6 0 1.1 136
Savigliano 09-08-2020 10:00 25.9 65.2 0 1.1 125
Savigliano 09-08-2020 11:00 27.6 55.2 0 1.4 102
Savigliano 09-08-2020 12:00 28.7 53.7 0 1.8 107
Savigliano 09-08-2020 13:00 29.7 54.1 0 2.2 102
Savigliano 09-08-2020 14:00 30.2 49.7 0 2.2 109
Savigliano 09-08-2020 15:00 31.5 46.3 0 1.1 118
Savigliano 09-08-2020 16:00 32.5 39.1 0 1.1 172
Savigliano 09-08-2020 17:00 32.7 36.9 0 0.4 273
Savigliano 09-08-2020 18:00 32.9 36 0 0.7 302
Savigliano 09-08-2020 19:00 31.5 43.1 0 1.1 319
Savigliano 09-08-2020 20:00 29.7 47.2 0 0.4 303
Savigliano 09-08-2020 21:00 27.5 53.4 0 1.1 268
Savigliano 09-08-2020 22:00 25.6 62.6 0 0.7 193
Savigliano 09-08-2020 23:00 24.8 69.1 0 0.7 193
Savigliano 10-08-2020 00:00 22.2 75 0 0.4 201
Savigliano 10-08-2020 01:00 22.1 79.1 0 0 189
Savigliano 10-08-2020 02:00 19.7 82.3 0 0.4 172
Savigliano 10-08-2020 03:00 19.8 82.7 0 0.7 169
Savigliano 10-08-2020 04:00 19.8 81.5 0 0 172
Savigliano 10-08-2020 05:00 21.7 80.8 0 1.1 221
Savigliano 10-08-2020 06:00 22.3 76.6 0 0.4 286
Savigliano 10-08-2020 07:00 22.1 76.6 0 0 280
Savigliano 10-08-2020 08:00 22.9 75 0 0 273
Savigliano 10-08-2020 09:00 25.2 71.3 0 0.4 173
Savigliano 10-08-2020 10:00 27.5 61.9 0 0.4 203
Savigliano 10-08-2020 11:00 27.9 58.2 0 0.7 238
Savigliano 10-08-2020 12:00 30 54.4 0 0.7 192
Savigliano 10-08-2020 13:00 30.1 53.7 0 1.4 154
Savigliano 10-08-2020 14:00 30.9 51.3 0 1.1 186
Savigliano 10-08-2020 15:00 29.4 52.8 0 2.2 287
Savigliano 10-08-2020 16:00 26.8 61.6 0 5 261
Savigliano 10-08-2020 17:00 21.6 72.1 0 11.9 181
Savigliano 10-08-2020 18:00 19.5 82.4 0 7.6 142
Savigliano 10-08-2020 19:00 21 79.7 0 8.3 166
Savigliano 10-08-2020 20:00 22.2 75.2 0 4.3 150
Savigliano 10-08-2020 21:00 20 80 0 2.5 105
Savigliano 10-08-2020 22:00 19.8 81.6 0 1.1 109
Savigliano 10-08-2020 23:00 19.6 87.5 0 0.7 144
Savigliano 11-08-2020 00:00 18.7 88.6 0 1.4 163
Savigliano 11-08-2020 01:00 17.4 87.8 0 1.1 160
Savigliano 11-08-2020 02:00 17 88.1 0 1.4 164
Savigliano 11-08-2020 03:00 17.2 87.4 0 0.4 189
Savigliano 11-08-2020 04:00 17.3 87.9 0 0.7 173
Savigliano 11-08-2020 05:00 16.9 85.1 0 0 194
Savigliano 11-08-2020 06:00 17.2 84.2 0 0 194
Savigliano 11-08-2020 07:00 17.3 87.7 0 0.4 192
Savigliano 11-08-2020 08:00 18.2 84 0 0 191
Savigliano 11-08-2020 09:00 19.9 80.4 0 0 189
Savigliano 11-08-2020 10:00 23.1 72.7 0 0 189
Savigliano 11-08-2020 11:00 26.8 61.5 0 0.4 191
Savigliano 11-08-2020 12:00 27.5 59.4 0 0.7 211
Savigliano 11-08-2020 13:00 27.6 59.9 0 1.4 284
Savigliano 11-08-2020 14:00 30.1 54.5 0 0.7 188
Savigliano 11-08-2020 15:00 29.8 53.9 0 1.4 46
Savigliano 11-08-2020 16:00 30 48.1 0 2.2 84
Savigliano 11-08-2020 17:00 31.5 45.8 0 2.2 164
Savigliano 11-08-2020 18:00 30.5 47.6 0 1.1 90
Savigliano 11-08-2020 19:00 30.1 51.7 0 0.4 82
Savigliano 11-08-2020 20:00 29.8 48.4 0 0.4 189
Savigliano 11-08-2020 21:00 26.5 64.7 0 0.4 287
Savigliano 11-08-2020 22:00 25 73.3 0 0 101
Savigliano 11-08-2020 23:00 25 75.3 0 0.7 235
Savigliano 12-08-2020 00:00 22.5 76.2 0 1.8 202
Savigliano 12-08-2020 01:00 22.5 77.4 0 1.4 180
Savigliano 12-08-2020 02:00 21.8 80.2 0 0.4 161
Savigliano 12-08-2020 03:00 19.6 82.7 0 1.1 155
Savigliano 12-08-2020 04:00 19.7 84.3 0 0.4 156
Savigliano 12-08-2020 05:00 19.7 88.3 0 0.4 157
Savigliano 12-08-2020 06:00 19.4 87.9 0 0.4 158
Savigliano 12-08-2020 07:00 19.1 87.9 0 0 159
Savigliano 12-08-2020 08:00 19.8 84.2 0 0.4 159
Savigliano 12-08-2020 09:00 22.3 74.8 0 0.7 185
Savigliano 12-08-2020 10:00 26.3 64.7 0 0.7 252
Savigliano 12-08-2020 11:00 27.5 61.8 0 1.1 102
Savigliano 12-08-2020 12:00 28.5 60 0 1.1 247
Savigliano 12-08-2020 13:00 29.6 58.8 0 1.1 242
Savigliano 12-08-2020 14:00 30.1 56.2 0 1.1 189
Savigliano 12-08-2020 15:00 30.4 54.4 0 1.4 115
Savigliano 12-08-2020 16:00 30.8 54.6 0 1.1 233
Savigliano 12-08-2020 17:00 30.1 57 0 1.4 122
Savigliano 12-08-2020 18:00 29 57.8 0 2.2 212
Savigliano 12-08-2020 19:00 23.2 72 3.9 14 215
Savigliano 12-08-2020 20:00 19.6 88.1 0 1.1 195
Savigliano 12-08-2020 21:00 19.6 88.7 0 2.9 184
Savigliano 12-08-2020 22:00 20 88.7 0 1.4 170
Savigliano 12-08-2020 23:00 19.9 88.9 0 0.4 172
Savigliano 13-08-2020 00:00 20.1 88 0 1.1 154
Savigliano 13-08-2020 01:00 19.9 88.3 0 0.7 149
Savigliano 13-08-2020 02:00 19.9 88.6 0 0.4 169
Savigliano 13-08-2020 03:00 20 88.6 0 0 170
Savigliano 13-08-2020 04:00 19.9 89 0 0.4 170
Savigliano 13-08-2020 05:00 19.8 88.9 0 1.1 169
Savigliano 13-08-2020 06:00 18.9 88.9 0 0 166
Savigliano 13-08-2020 07:00 17.5 90.7 0 0.4 161
Savigliano 13-08-2020 08:00 18.5 91.7 0 0.4 169
Savigliano 13-08-2020 09:00 21.8 82.8 0 0.4 161
Savigliano 13-08-2020 10:00 23.7 75.8 0 1.1 226
Savigliano 13-08-2020 11:00 25.7 72.5 0 0.7 298
Savigliano 13-08-2020 12:00 26.9 67.5 0 1.4 91
Savigliano 13-08-2020 13:00 27.5 62.5 0 1.4 93
Savigliano 13-08-2020 14:00 27.6 62.5 0 1.8 132
Savigliano 13-08-2020 15:00 28.1 60.2 0 1.8 105
Savigliano 13-08-2020 16:00 29 54.2 0 1.8 136
Savigliano 13-08-2020 17:00 27.5 61 0 0.4 186
Savigliano 13-08-2020 18:00 25.1 76.4 0 3.6 255
Savigliano 13-08-2020 19:00 26 71.6 0 1.1 210
Savigliano 13-08-2020 20:00 24.7 75.5 0 0.4 316
Savigliano 13-08-2020 21:00 23.5 76.1 0 1.4 119
Savigliano 13-08-2020 22:00 22.6 75.7 0 0.7 316
Savigliano 13-08-2020 23:00 22.3 75.5 0 1.1 273
Savigliano 14-08-2020 00:00 20.9 77 0 1.1 234
Savigliano 14-08-2020 01:00 19.7 81.8 0 1.4 189
Savigliano 14-08-2020 02:00 19.9 86.4 0 3.2 114
Savigliano 14-08-2020 03:00 0 87.3 0 0 0
Savigliano 07-08-2020 11:20 0 0 0.1 0 0
Savigliano 10-08-2020 16:30 0 0 0.1 0 0
Savigliano 10-08-2020 16:35 0 0 0.1 0 0
Savigliano 10-08-2020 17:10 0 0 0.1 0 0
Savigliano 10-08-2020 17:15 0 0 0.1 0 0
Savigliano 10-08-2020 17:20 0 0 0.1 0 0
Savigliano 12-08-2020 18:35 0 0 1.9 0 0
Savigliano 12-08-2020 18:40 0 0 1.7 0 0
Savigliano 12-08-2020 18:45 0 0 1.8 0 0
Savigliano 12-08-2020 18:50 0 0 2.6 0 0
Savigliano 12-08-2020 18:55 0 0 5.7 0 0
Savigliano 12-08-2020 19:05 0 0 0.8 0 0
Savigliano 12-08-2020 19:10 0 0 0.1 0 0

Riassuntivo giornaliero del 14-08-2020